Time;durP1;ratioP1;P1;durP2;ratioP2;P2;SDS_P1;SDS_P2;PMS_P1;PMS_P2;Temp;Humidity;BMP_temperature;BMP_pressure;BME280_temperature;BME280_humidity;BME280_pressure;Samples;Min_cycle;Max_cycle;Signal;HPM_P1;HPM_P2
2022/12/27 00:01:59;;;;;;;2.28;0.70;;;;;;;4.10;93.86;98142.19;5040168;28;20385;-64
2022/12/27 00:04:26;;;;;;;2.22;0.70;;;;;;;4.02;93.25;98149.31;5029038;28;20165;-63
2022/12/27 00:06:54;;;;;;;2.53;0.90;;;;;;;3.99;93.20;98148.88;5038992;28;20041;-63
2022/12/27 00:09:21;;;;;;;3.58;0.95;;;;;;;3.94;94.53;98141.38;5056157;28;20049;-64
2022/12/27 00:11:48;;;;;;;1.90;0.75;;;;;;;3.85;95.62;98147.88;5043258;28;20044;-64
2022/12/27 00:14:17;;;;;;;4.03;1.13;;;;;;;3.82;94.21;98149.09;5027534;28;20056;-64
2022/12/27 00:16:44;;;;;;;4.13;0.90;;;;;;;3.86;95.68;98145.03;5044296;28;20063;-63
2022/12/27 00:19:11;;;;;;;5.05;1.58;;;;;;;3.76;95.37;98148.00;5045441;28;20465;-63
2022/12/27 00:21:37;;;;;;;2.45;1.20;;;;;;;3.73;95.70;98140.34;5043896;28;20045;-63
2022/12/27 00:24:04;;;;;;;2.85;1.00;;;;;;;3.75;95.95;98148.19;5030441;28;20524;-63
2022/12/27 00:26:33;;;;;;;1.90;0.90;;;;;;;3.66;96.13;98152.84;5044018;28;20530;-63
2022/12/27 00:29:00;;;;;;;4.88;1.10;;;;;;;3.59;96.26;98163.47;5047989;28;20041;-64
2022/12/27 00:31:28;;;;;;;2.03;1.80;;;;;;;3.50;97.10;98162.75;5039614;28;21455;-64
2022/12/27 00:33:58;;;;;;;1.98;0.95;;;;;;;3.36;98.79;98168.94;5045340;28;20040;-62
2022/12/27 00:36:27;;;;;;;2.75;0.88;;;;;;;3.40;99.11;98172.91;5045069;28;20040;-65
2022/12/27 00:38:55;;;;;;;3.30;1.10;;;;;;;3.37;99.46;98175.94;5046196;28;20033;-64
2022/12/27 00:41:22;;;;;;;4.07;1.45;;;;;;;3.38;99.18;98182.97;5033529;28;20048;-64
2022/12/27 00:43:49;;;;;;;5.35;1.80;;;;;;;3.30;98.80;98185.72;5030590;28;20451;-63
2022/12/27 00:46:16;;;;;;;3.58;1.30;;;;;;;3.25;99.33;98195.16;5032486;28;20505;-63
2022/12/27 00:48:43;;;;;;;4.78;1.10;;;;;;;3.21;100.00;98185.00;5034414;28;20507;-63
2022/12/27 00:51:15;;;;;;;3.50;1.17;;;;;;;3.20;99.29;98196.72;5046950;28;20424;-64
2022/12/27 00:53:42;;;;;;;2.17;0.98;;;;;;;3.25;99.54;98197.00;5041555;28;20497;-64
2022/12/27 00:56:13;;;;;;;2.92;0.88;;;;;;;3.16;99.90;98203.47;5051127;28;20083;-64
2022/12/27 00:58:39;;;;;;;3.55;0.90;;;;;;;3.08;100.00;98197.19;5043255;28;20038;-64
2022/12/27 01:01:13;;;;;;;3.58;1.20;;;;;;;3.11;99.48;98207.53;5039502;28;20601;-63
2022/12/27 01:03:39;;;;;;;4.00;1.20;;;;;;;2.98;100.00;98216.16;5047487;28;20671;-63
2022/12/27 01:06:08;;;;;;;1.42;0.70;;;;;;;2.92;99.82;98216.06;5038880;28;20072;-63
2022/12/27 01:08:35;;;;;;;3.50;0.90;;;;;;;2.92;100.00;98211.56;5045428;28;20037;-63
2022/12/27 01:11:03;;;;;;;4.10;1.10;;;;;;;2.77;100.00;98227.56;5038695;28;20052;-63
2022/12/27 01:13:30;;;;;;;2.60;0.70;;;;;;;2.69;100.00;98222.28;5045914;28;20119;-64
2022/12/27 01:15:57;;;;;;;3.40;0.73;;;;;;;2.68;100.00;98226.78;5045395;28;20033;-64
2022/12/27 01:18:24;;;;;;;2.03;0.80;;;;;;;2.61;100.00;98225.84;5048954;28;20515;-62
2022/12/27 01:20:51;;;;;;;2.55;1.17;;;;;;;2.56;99.74;98237.09;5035420;28;20045;-63
2022/12/27 01:23:18;;;;;;;2.15;0.80;;;;;;;2.49;99.68;98240.63;5047258;28;20083;-64
2022/12/27 01:25:44;;;;;;;3.45;1.05;;;;;;;2.43;98.95;98237.69;5035554;28;20072;-63
2022/12/27 01:28:10;;;;;;;1.45;0.68;;;;;;;2.38;99.93;98249.91;5027338;28;20104;-64
2022/12/27 01:30:37;;;;;;;0.80;0.63;;;;;;;2.40;99.50;98245.22;5039833;28;20040;-64
2022/12/27 01:33:04;;;;;;;2.45;1.08;;;;;;;2.40;100.00;98253.25;5025189;28;20111;-63
2022/12/27 01:35:30;;;;;;;6.53;1.30;;;;;;;2.26;100.00;98252.16;5034957;28;20037;-62
2022/12/27 01:37:57;;;;;;;2.88;1.00;;;;;;;2.29;100.00;98268.66;5045964;28;20040;-64
2022/12/27 01:40:24;;;;;;;5.88;1.35;;;;;;;2.33;99.39;98261.13;5045844;28;20033;-64
2022/12/27 01:42:50;;;;;;;1.95;0.75;;;;;;;2.36;98.55;98259.94;5044713;28;20049;-62
2022/12/27 01:45:25;;;;;;;3.40;0.77;;;;;;;2.28;98.72;98268.88;5036805;28;20069;-64
2022/12/27 01:48:12;;;;;;;3.17;0.70;;;;;;;2.28;98.74;98274.22;5042489;28;20048;-64
2022/12/27 01:50:42;;;;;;;2.05;0.60;;;;;;;2.25;97.84;98266.53;5041048;28;20137;-62
2022/12/27 01:53:20;;;;;;;2.15;0.60;;;;;;;2.14;98.10;98265.91;5046820;28;20106;-63
2022/12/27 01:55:49;;;;;;;2.33;0.80;;;;;;;2.18;97.45;98271.75;5039379;28;20049;-64
2022/12/27 01:58:22;;;;;;;2.97;0.80;;;;;;;2.13;97.43;98272.25;5047501;28;20052;-63
2022/12/27 02:00:50;;;;;;;5.00;0.70;;;;;;;2.07;97.85;98278.31;5046722;28;20102;-63
2022/12/27 02:03:23;;;;;;;1.20;0.60;;;;;;;2.09;97.79;98278.97;5035264;28;20551;-62
2022/12/27 02:05:50;;;;;;;0.82;0.60;;;;;;;2.06;99.13;98274.81;5034769;28;20044;-63
2022/12/27 02:08:54;;;;;;;4.32;0.73;;;;;;;1.98;99.00;98276.69;5026320;28;20056;-63
2022/12/27 02:11:49;;;;;;;3.20;0.85;;;;;;;1.74;99.52;98281.13;5037147;28;20085;-63
2022/12/27 02:14:12;;;;;;;4.68;0.80;;;;;;;1.96;98.05;98284.88;5035208;28;20064;-64
2022/12/27 02:16:39;;;;;;;3.20;0.82;;;;;;;2.00;98.52;98290.69;5040606;28;20044;-62
2022/12/27 02:19:17;;;;;;;4.82;0.70;;;;;;;1.45;100.00;98291.38;5041551;28;20034;-64
2022/12/27 02:22:09;;;;;;;1.50;0.60;;;;;;;1.29;100.00;98298.41;5039125;28;20079;-63
2022/12/27 02:25:04;;;;;;;2.38;0.77;;;;;;;0.75;100.00;98306.94;5041331;28;20111;-64
2022/12/27 02:27:43;;;;;;;3.50;1.23;;;;;;;0.66;100.00;98307.94;5046044;28;20033;-63
2022/12/27 02:30:12;;;;;;;1.35;0.68;;;;;;;0.54;100.00;98305.56;5044048;28;20049;-63
2022/12/27 02:32:46;;;;;;;1.75;0.88;;;;;;;0.45;100.00;98314.56;5045163;28;20045;-64
2022/12/27 02:35:19;;;;;;;4.93;0.90;;;;;;;0.27;100.00;98312.00;5047153;28;20064;-64
2022/12/27 02:37:53;;;;;;;2.70;0.90;;;;;;;0.23;100.00;98315.00;5026013;28;20103;-62
2022/12/27 02:55:28;;;;;;;3.00;1.00;;;;;;;1.10;100.00;98314.78;5030154;28;20057;-63
2022/12/27 02:58:14;;;;;;;2.05;0.95;;;;;;;1.26;100.00;98308.59;5020226;28;20044;-63
2022/12/27 03:04:23;;;;;;;3.33;0.93;;;;;;;1.25;100.00;98306.94;5039047;28;20059;-63
2022/12/27 03:06:56;;;;;;;3.40;1.08;;;;;;;1.06;100.00;98314.28;5039741;28;20045;-63
2022/12/27 03:18:21;;;;;;;3.83;0.90;;;;;;;0.11;100.00;98321.63;5039121;28;20060;-63
2022/12/27 03:26:25;;;;;;;3.90;1.02;;;;;;;-0.38;100.00;98343.53;5045531;28;20516;-62
2022/12/27 03:34:39;;;;;;;3.47;1.25;;;;;;;-0.37;100.00;98346.00;5036142;28;20124;-64
2022/12/27 03:38:03;;;;;;;3.63;1.38;;;;;;;-0.32;100.00;98343.75;5042809;28;20500;-63
2022/12/27 03:43:09;;;;;;;3.35;1.50;;;;;;;0.01;100.00;98347.53;5035570;28;20083;-64
2022/12/27 03:43:29;;;;;;;3.97;1.60;;;;;;;0.28;100.00;98348.31;5044467;28;20049;-64
2022/12/27 03:49:44;;;;;;;2.07;1.10;;;;;;;0.49;100.00;98337.22;5041403;28;20041;-62
2022/12/27 03:52:20;;;;;;;2.70;1.23;;;;;;;0.71;100.00;98343.75;5015159;28;20049;-62
2022/12/27 03:54:49;;;;;;;2.95;1.48;;;;;;;0.33;100.00;98344.16;5001791;28;20129;-64
2022/12/27 03:57:19;;;;;;;4.57;1.30;;;;;;;0.08;100.00;98340.59;5012332;28;20119;-63
2022/12/27 03:59:45;;;;;;;1.77;1.02;;;;;;;-0.10;100.00;98354.81;5030184;28;20041;-64
2022/12/27 04:02:13;;;;;;;1.85;1.20;;;;;;;-0.04;100.00;98348.03;5037459;28;20543;-64
2022/12/27 04:04:40;;;;;;;2.90;1.27;;;;;;;-0.30;100.00;98352.38;5046751;28;20052;-63
2022/12/27 04:07:07;;;;;;;7.85;1.40;;;;;;;-0.42;100.00;98354.47;5047676;28;20053;-63
2022/12/27 04:37:05;;;;;;;4.20;1.80;;;;;;;-0.14;100.00;98337.50;5048018;28;20045;-64
2022/12/27 04:39:31;;;;;;;2.38;1.17;;;;;;;0.15;100.00;98332.78;5049734;28;20041;-63
2022/12/27 04:55:58;;;;;;;3.17;1.00;;;;;;;0.40;100.00;98346.19;5030671;28;20049;-63
2022/12/27 04:58:25;;;;;;;2.38;1.00;;;;;;;0.30;100.00;98341.00;5044940;28;20110;-64
2022/12/27 05:03:40;;;;;;;3.42;0.93;;;;;;;0.18;100.00;98343.13;5046521;28;20041;-63
2022/12/27 05:06:07;;;;;;;4.03;1.13;;;;;;;0.12;100.00;98348.06;5031200;28;20045;-66
2022/12/27 05:14:09;;;;;;;6.03;1.63;;;;;;;0.01;100.00;98355.53;5045458;28;20048;-66
2022/12/27 05:16:41;;;;;;;3.37;1.30;;;;;;;0.16;100.00;98369.06;5041254;28;20041;-66
2022/12/27 05:19:10;;;;;;;4.50;1.63;;;;;;;-0.08;100.00;98370.66;5041465;28;20433;-65
2022/12/27 05:21:38;;;;;;;5.10;1.35;;;;;;;-0.38;100.00;98378.13;5029819;28;20045;-66
2022/12/27 05:26:54;;;;;;;4.07;1.70;;;;;;;-0.63;100.00;98385.94;5035195;28;20036;-67
2022/12/27 05:29:20;;;;;;;2.70;1.30;;;;;;;-0.76;100.00;98387.16;5062853;28;20041;-66
2022/12/27 05:31:47;;;;;;;3.45;1.40;;;;;;;-1.00;100.00;98393.13;5033660;28;20390;-67
2022/12/27 05:34:13;;;;;;;3.45;1.40;;;;;;;-1.11;100.00;98402.16;5045271;28;20057;-65
2022/12/27 05:36:40;;;;;;;3.10;1.23;;;;;;;-1.22;100.00;98397.91;5039072;28;20057;-66
2022/12/27 05:39:06;;;;;;;4.63;1.50;;;;;;;-1.43;100.00;98393.69;5045629;28;20110;-66
2022/12/27 05:41:33;;;;;;;4.53;1.52;;;;;;;-1.54;100.00;98396.53;5042001;28;20037;-66
2022/12/27 05:43:59;;;;;;;3.10;1.40;;;;;;;-1.60;100.00;98400.63;5033996;28;20045;-67
2022/12/27 05:46:32;;;;;;;3.72;1.75;;;;;;;-1.48;100.00;98406.56;5031325;28;20556;-65
2022/12/27 05:48:59;;;;;;;4.97;1.45;;;;;;;-1.63;100.00;98408.88;5042645;28;20069;-66
2022/12/27 05:51:25;;;;;;;4.70;1.98;;;;;;;-1.92;100.00;98409.88;5040199;28;20174;-66
2022/12/27 05:53:52;;;;;;;6.20;2.70;;;;;;;-1.82;100.00;98410.66;5032770;28;20049;-65
2022/12/27 05:56:20;;;;;;;6.75;2.00;;;;;;;-1.71;100.00;98412.28;5041288;28;20168;-63
2022/12/27 05:58:51;;;;;;;5.78;1.75;;;;;;;-1.82;100.00;98413.31;5043246;28;20135;-64
2022/12/27 06:01:17;;;;;;;6.53;1.95;;;;;;;-1.79;100.00;98413.03;5032524;28;20073;-64
2022/12/27 06:03:44;;;;;;;3.45;1.88;;;;;;;-1.89;100.00;98417.53;5043139;28;20049;-63
2022/12/27 06:06:11;;;;;;;5.50;2.92;;;;;;;-1.81;100.00;98416.81;5047202;28;20044;-64
2022/12/27 06:08:39;;;;;;;4.70;2.10;;;;;;;-1.56;100.00;98417.94;5039148;28;20083;-63
2022/12/27 06:11:08;;;;;;;6.80;1.88;;;;;;;-1.54;100.00;98415.13;5045786;28;20049;-63
2022/12/27 06:13:36;;;;;;;4.95;2.10;;;;;;;-1.53;100.00;98420.31;5042004;28;20117;-64
2022/12/27 06:16:04;;;;;;;3.67;1.90;;;;;;;-1.36;100.00;98425.81;5044156;28;20068;-64
2022/12/27 06:18:33;;;;;;;3.50;1.92;;;;;;;-1.07;100.00;98424.78;5046310;28;20045;-64
2022/12/27 06:21:07;;;;;;;3.17;1.70;;;;;;;-1.22;100.00;98422.63;5047979;28;20049;-63
2022/12/27 06:23:36;;;;;;;4.63;1.83;;;;;;;-1.24;100.00;98416.66;5041045;28;20057;-65
2022/12/27 06:26:04;;;;;;;7.10;1.77;;;;;;;-0.93;100.00;98415.44;5040581;28;20099;-63
2022/12/27 06:28:31;;;;;;;6.55;2.03;;;;;;;-1.08;100.00;98412.47;5033308;28;20061;-64
2022/12/27 06:30:59;;;;;;;10.53;1.80;;;;;;;-0.98;100.00;98415.91;5029362;28;20038;-64
2022/12/27 06:33:27;;;;;;;4.00;1.85;;;;;;;-1.01;100.00;98418.84;5042757;28;20037;-64
2022/12/27 06:35:54;;;;;;;3.78;1.65;;;;;;;-0.93;100.00;98412.75;5033976;28;20049;-63
2022/12/27 06:38:20;;;;;;;2.45;1.42;;;;;;;-0.88;100.00;98417.63;5043322;28;20083;-64
2022/12/27 06:40:47;;;;;;;5.65;1.90;;;;;;;-0.84;100.00;98419.00;5048720;28;20049;-63
2022/12/27 06:43:14;;;;;;;5.53;1.50;;;;;;;-0.85;100.00;98427.97;5044119;28;20073;-64
2022/12/27 06:45:40;;;;;;;3.00;1.58;;;;;;;-0.83;100.00;98423.31;5030471;28;20045;-62
2022/12/27 06:48:07;;;;;;;3.45;1.60;;;;;;;-0.80;100.00;98428.34;5057089;28;20527;-64
2022/12/27 06:50:35;;;;;;;5.20;1.50;;;;;;;-0.62;100.00;98425.69;5040188;28;20037;-64
2022/12/27 06:53:02;;;;;;;3.15;1.30;;;;;;;-0.39;100.00;98425.19;5038781;28;20523;-64
2022/12/27 06:55:28;;;;;;;4.28;1.50;;;;;;;-0.22;100.00;98428.78;5047620;28;20094;-64
2022/12/27 06:57:55;;;;;;;5.13;1.50;;;;;;;-0.07;100.00;98423.72;5056646;28;20094;-63
2022/12/27 07:00:21;;;;;;;4.70;1.42;;;;;;;-0.12;100.00;98419.88;5045773;28;20075;-64
2022/12/27 07:02:48;;;;;;;3.22;1.50;;;;;;;-0.10;100.00;98421.38;5049499;28;20041;-65
2022/12/27 07:05:15;;;;;;;5.82;1.30;;;;;;;-0.16;100.00;98420.19;5047939;28;20044;-63
2022/12/27 07:07:41;;;;;;;2.58;1.27;;;;;;;-0.04;100.00;98425.25;5047633;28;20043;-62
2022/12/27 07:10:08;;;;;;;6.93;1.80;;;;;;;0.02;100.00;98429.94;5048561;28;20045;-64
2022/12/27 07:12:36;;;;;;;2.60;1.50;;;;;;;0.03;100.00;98434.25;5040038;28;20558;-63
2022/12/27 07:15:05;;;;;;;5.03;1.17;;;;;;;0.01;100.00;98438.94;5048236;28;20052;-64
2022/12/27 07:17:35;;;;;;;2.97;1.30;;;;;;;-0.05;100.00;98437.72;5044734;28;20056;-64
2022/12/27 07:20:06;;;;;;;3.53;1.55;;;;;;;-0.02;100.00;98448.06;5037796;28;20059;-64
2022/12/27 07:22:33;;;;;;;4.90;1.48;;;;;;;-0.11;100.00;98448.97;5033727;28;20151;-64
2022/12/27 07:24:59;;;;;;;5.45;1.52;;;;;;;-0.05;100.00;98439.53;5035189;28;20676;-64
2022/12/27 07:27:26;;;;;;;3.63;1.52;;;;;;;-0.01;100.00;98456.88;5061671;28;20094;-62
2022/12/27 07:29:52;;;;;;;6.90;2.22;;;;;;;-0.12;100.00;98451.81;5049778;28;20088;-64
2022/12/27 07:32:19;;;;;;;4.68;1.75;;;;;;;-0.26;100.00;98456.69;5030099;28;20049;-63
2022/12/27 07:34:45;;;;;;;6.10;1.90;;;;;;;-0.23;100.00;98452.91;5047296;28;20171;-63
2022/12/27 07:37:12;;;;;;;5.78;2.00;;;;;;;-0.03;100.00;98464.19;5043104;28;20045;-64
2022/12/27 07:39:39;;;;;;;3.88;1.65;;;;;;;-0.15;100.00;98461.78;5047523;28;20045;-64
2022/12/27 07:42:05;;;;;;;4.07;1.90;;;;;;;-0.24;100.00;98460.06;5043524;28;20069;-64
2022/12/27 07:44:36;;;;;;;2.97;1.38;;;;;;;-0.27;100.00;98461.22;5044366;28;20103;-64
2022/12/27 07:47:03;;;;;;;4.75;1.80;;;;;;;-0.02;100.00;98458.72;5058472;28;20045;-63
2022/12/27 07:49:30;;;;;;;3.42;1.65;;;;;;;0.21;100.00;98460.00;5036793;28;20802;-64
2022/12/27 07:51:56;;;;;;;10.32;1.77;;;;;;;0.22;100.00;98457.16;5048229;28;20048;-63
2022/12/27 07:54:23;;;;;;;5.78;1.60;;;;;;;0.26;100.00;98460.38;5045035;28;20045;-64
2022/12/27 07:56:49;;;;;;;3.50;1.67;;;;;;;0.20;100.00;98447.66;5053578;28;20136;-64
2022/12/27 07:59:16;;;;;;;3.80;1.88;;;;;;;0.25;100.00;98451.53;5044618;28;20041;-63
2022/12/27 08:04:29;;;;;;;5.60;1.70;;;;;;;-0.05;100.00;98451.03;5036053;28;20071;-64
2022/12/27 08:07:02;;;;;;;6.32;2.40;;;;;;;0.11;100.00;98446.81;5044725;28;20119;-64
2022/12/27 08:09:32;;;;;;;2.97;1.50;;;;;;;0.21;100.00;98446.66;5041612;28;20052;-64
2022/12/27 08:11:59;;;;;;;5.70;2.30;;;;;;;0.21;100.00;98444.84;5043948;28;20542;-63
2022/12/27 08:14:26;;;;;;;4.57;1.85;;;;;;;0.32;100.00;98450.88;5041468;28;20048;-64
2022/12/27 08:16:54;;;;;;;5.20;2.20;;;;;;;0.37;100.00;98448.59;5042614;28;20044;-64
2022/12/27 08:19:20;;;;;;;5.50;2.35;;;;;;;0.51;100.00;98455.13;5043350;28;20068;-63
2022/12/27 08:21:47;;;;;;;4.18;1.80;;;;;;;0.69;100.00;98447.03;5034178;28;20129;-64
2022/12/27 08:24:13;;;;;;;6.47;1.67;;;;;;;0.72;100.00;98445.88;5045037;28;20065;-64
2022/12/27 08:26:40;;;;;;;4.78;2.03;;;;;;;0.73;100.00;98447.53;5035609;28;20132;-62
2022/12/27 08:29:06;;;;;;;7.22;1.90;;;;;;;0.62;100.00;98448.69;5040931;28;20460;-62
2022/12/27 08:31:33;;;;;;;5.18;1.75;;;;;;;0.61;100.00;98452.34;5045333;28;20041;-64
2022/12/27 08:33:59;;;;;;;4.85;2.05;;;;;;;0.60;100.00;98443.53;5038989;28;20083;-66
2022/12/27 08:36:26;;;;;;;4.18;1.95;;;;;;;0.78;100.00;98445.25;5048933;28;20578;-67
2022/12/27 08:39:12;;;;;;;5.38;1.50;;;;;;;0.90;100.00;98451.97;5044202;28;20053;-67
2022/12/27 08:41:39;;;;;;;4.25;1.70;;;;;;;0.94;100.00;98448.94;5043471;28;20746;-66
2022/12/27 08:44:06;;;;;;;3.45;1.80;;;;;;;1.05;100.00;98453.97;5037544;28;20538;-66
2022/12/27 08:46:32;;;;;;;5.90;1.90;;;;;;;1.03;100.00;98453.28;5039553;28;20520;-56
2022/12/27 08:48:59;;;;;;;3.75;1.70;;;;;;;1.15;100.00;98467.19;5038155;28;20041;-57
2022/12/27 08:51:26;;;;;;;3.05;1.38;;;;;;;1.27;100.00;98462.34;5040714;28;20059;-56
2022/12/27 08:54:05;;;;;;;6.57;1.80;;;;;;;1.35;100.00;98457.03;5046818;28;20068;-57
2022/12/27 08:56:32;;;;;;;4.43;1.90;;;;;;;1.38;100.00;98462.03;5038473;28;20047;-57
2022/12/27 08:58:58;;;;;;;5.30;1.45;;;;;;;1.46;100.00;98463.88;5046560;28;20079;-66
2022/12/27 09:01:25;;;;;;;5.07;1.83;;;;;;;1.49;100.00;98465.38;5036726;28;20052;-66
2022/12/27 09:03:52;;;;;;;5.65;1.67;;;;;;;1.59;99.69;98465.22;5046460;28;20044;-67
2022/12/27 09:06:21;;;;;;;2.80;1.60;;;;;;;1.64;99.68;98462.88;5042786;28;20084;-67
2022/12/27 09:08:49;;;;;;;3.42;1.60;;;;;;;1.67;99.47;98460.69;5057644;28;20071;-67
2022/12/27 09:11:25;;;;;;;3.80;1.80;;;;;;;1.62;99.87;98465.69;5044113;28;20034;-67
2022/12/27 09:13:53;;;;;;;5.38;1.73;;;;;;;1.72;99.21;98465.53;5026977;28;20049;-67
2022/12/27 09:16:22;;;;;;;3.80;1.20;;;;;;;1.91;97.68;98472.38;5042182;28;20041;-67
2022/12/27 09:18:51;;;;;;;4.65;1.60;;;;;;;2.01;97.54;98474.00;5042746;28;20091;-68
2022/12/27 09:21:20;;;;;;;2.67;1.35;;;;;;;2.02;97.12;98475.69;5049356;28;20072;-67
2022/12/27 09:23:47;;;;;;;4.05;1.25;;;;;;;2.10;96.18;98473.00;5051419;28;20508;-66
2022/12/27 09:26:20;;;;;;;2.88;1.40;;;;;;;2.16;95.91;98483.03;5045973;28;20052;-67
2022/12/27 09:28:48;;;;;;;2.53;1.20;;;;;;;2.21;96.05;98480.66;5046135;28;20041;-67
2022/12/27 09:31:16;;;;;;;4.03;1.60;;;;;;;2.27;96.63;98483.66;5045144;28;20037;-67
2022/12/27 09:33:43;;;;;;;3.92;1.75;;;;;;;2.33;96.04;98482.97;5042335;28;20052;-67
2022/12/27 09:36:15;;;;;;;3.17;1.50;;;;;;;2.49;95.08;98478.56;5046557;28;20670;-68
2022/12/27 09:38:44;;;;;;;7.03;1.60;;;;;;;2.59;94.78;98480.03;5043676;28;20052;-68
2022/12/27 09:41:48;;;;;;;3.50;1.45;;;;;;;2.65;94.99;98483.06;5041045;28;20041;-68
2022/12/27 09:44:46;;;;;;;4.72;1.40;;;;;;;2.67;94.91;98473.00;5036973;28;20064;-67
2022/12/27 09:47:21;;;;;;;1.65;1.00;;;;;;;2.66;95.08;98469.50;5007733;28;20595;-67
2022/12/27 09:49:52;;;;;;;3.22;1.30;;;;;;;2.80;94.08;98475.94;5020072;28;20044;-68
2022/12/27 09:52:40;;;;;;;4.37;1.33;;;;;;;2.86;94.44;98469.06;5038354;28;20041;-68
2022/12/27 09:55:30;;;;;;;2.63;1.10;;;;;;;3.01;93.66;98471.00;5038399;28;20334;-68
2022/12/27 09:58:12;;;;;;;4.25;1.10;;;;;;;3.13;90.61;98466.91;5037061;28;20049;-68
2022/12/27 10:00:38;;;;;;;4.05;1.13;;;;;;;3.30;89.32;98462.28;5032388;28;20053;-68
2022/12/27 10:03:11;;;;;;;3.38;0.80;;;;;;;3.44;89.24;98459.84;5049284;28;20049;-68
2022/12/27 10:05:41;;;;;;;2.20;0.95;;;;;;;3.43;89.62;98453.66;5044119;28;20041;-67
2022/12/27 10:08:16;;;;;;;2.28;1.10;;;;;;;3.47;89.68;98457.66;5051412;28;20045;-67
2022/12/27 10:10:54;;;;;;;3.22;0.90;;;;;;;3.55;89.47;98463.97;5034764;28;20038;-68
2022/12/27 10:13:28;;;;;;;3.60;1.35;;;;;;;3.51;89.56;98458.94;5040989;28;20049;-68
2022/12/27 10:16:01;;;;;;;4.47;1.17;;;;;;;3.53;90.89;98449.94;5038901;28;20052;-68
2022/12/27 10:18:47;;;;;;;2.08;0.93;;;;;;;3.57;89.42;98454.72;5039144;28;20049;-68
2022/12/27 10:21:23;;;;;;;5.63;1.10;;;;;;;3.73;88.80;98448.38;5031910;28;20064;-68
2022/12/27 10:24:09;;;;;;;4.05;1.08;;;;;;;3.79;90.78;98438.81;5044880;28;20446;-68
2022/12/27 10:26:37;;;;;;;4.18;1.50;;;;;;;3.85;89.50;98434.56;5044100;28;20042;-68
2022/12/27 10:29:19;;;;;;;3.45;1.20;;;;;;;3.93;89.79;98437.16;5030320;28;20637;-67
2022/12/27 10:31:45;;;;;;;3.35;1.05;;;;;;;4.03;89.87;98442.28;5040432;28;20095;-68
2022/12/27 10:34:15;;;;;;;3.78;1.15;;;;;;;4.08;89.30;98445.22;5039349;28;20482;-68
2022/12/27 10:36:43;;;;;;;4.78;1.20;;;;;;;4.09;88.05;98443.41;5040140;28;20095;-68
2022/12/27 10:39:25;;;;;;;4.50;1.40;;;;;;;4.14;87.63;98444.50;5040845;28;20037;-68
2022/12/27 10:42:01;;;;;;;3.65;1.25;;;;;;;4.21;87.65;98449.97;5036483;28;20048;-68
2022/12/27 10:44:28;;;;;;;3.75;1.00;;;;;;;4.30;87.63;98445.34;5045345;28;20420;-68
2022/12/27 10:46:55;;;;;;;5.20;1.67;;;;;;;4.37;86.93;98440.91;5044985;28;20069;-68
2022/12/27 10:49:26;;;;;;;4.82;1.15;;;;;;;4.50;86.82;98447.47;5029559;28;20088;-68
2022/12/27 10:51:57;;;;;;;3.50;0.98;;;;;;;4.58;86.22;98438.47;5030089;28;20048;-67
2022/12/27 10:54:26;;;;;;;3.47;1.20;;;;;;;4.73;85.47;98433.94;5028800;28;20642;-68
2022/12/27 10:56:54;;;;;;;1.75;0.70;;;;;;;4.80;84.31;98424.09;5031968;28;20076;-66
2022/12/27 10:59:25;;;;;;;1.73;0.70;;;;;;;4.93;85.19;98430.63;5039514;28;20052;-69
2022/12/27 11:02:00;;;;;;;3.13;0.82;;;;;;;5.00;82.22;98431.56;5030466;28;20045;-66
2022/12/27 11:04:29;;;;;;;5.18;0.90;;;;;;;5.14;82.44;98437.06;5038192;28;21018;-66
2022/12/27 11:06:58;;;;;;;2.70;0.80;;;;;;;5.21;81.14;98437.97;5044438;28;20049;-66
2022/12/27 11:09:33;;;;;;;4.80;0.70;;;;;;;5.22;80.99;98431.56;5054388;28;20045;-65
2022/12/27 11:12:27;;;;;;;3.33;0.70;;;;;;;5.16;81.18;98429.66;5041832;28;20084;-64
2022/12/27 11:15:09;;;;;;;4.20;0.75;;;;;;;5.20;80.73;98437.13;5044265;28;20546;-66
2022/12/27 11:17:39;;;;;;;2.88;0.55;;;;;;;5.16;79.79;98443.09;5031430;28;20413;-63
2022/12/27 11:20:27;;;;;;;3.78;0.80;;;;;;;5.15;79.96;98439.56;5043953;28;20079;-63
2022/12/27 11:22:59;;;;;;;3.33;0.65;;;;;;;5.19;80.52;98438.16;5022030;28;20520;-62
2022/12/27 11:25:27;;;;;;;5.20;0.90;;;;;;;5.23;80.37;98435.91;5033717;28;20610;-63
2022/12/27 11:28:06;;;;;;;4.68;0.70;;;;;;;5.19;80.51;98440.00;5053068;28;20137;-63
2022/12/27 11:30:40;;;;;;;4.18;0.60;;;;;;;5.16;80.32;98438.53;5041624;28;20052;-62
2022/12/27 11:33:32;;;;;;;3.28;0.47;;;;;;;5.18;80.09;98438.34;5035636;28;20102;-62
2022/12/27 11:36:00;;;;;;;6.40;0.70;;;;;;;5.27;79.95;98437.19;5030828;28;20060;-62
2022/12/27 11:38:30;;;;;;;2.47;0.85;;;;;;;5.25;78.38;98444.63;5035510;28;20063;-62
2022/12/27 11:41:08;;;;;;;2.20;0.63;;;;;;;5.35;79.58;98444.31;5035181;28;20042;-62
2022/12/27 11:43:44;;;;;;;2.67;0.68;;;;;;;5.27;78.63;98442.56;5040949;28;20060;-62
2022/12/27 11:46:27;;;;;;;1.20;0.50;;;;;;;5.20;78.55;98437.13;5039616;28;20045;-62
2022/12/27 11:48:57;;;;;;;2.33;0.55;;;;;;;5.35;78.52;98438.94;5033794;28;20052;-63
2022/12/27 11:51:38;;;;;;;4.05;0.90;;;;;;;5.46;76.81;98429.53;5050462;28;20117;-62
2022/12/27 11:54:35;;;;;;;2.33;0.57;;;;;;;5.55;79.37;98433.75;5044810;28;20114;-63
2022/12/27 11:57:53;;;;;;;4.97;1.15;;;;;;;5.59;77.28;98432.34;5033725;28;20504;-64
2022/12/27 12:00:22;;;;;;;2.63;0.80;;;;;;;5.71;77.30;98437.16;5030655;28;20144;-62
2022/12/27 12:03:30;;;;;;;2.03;0.75;;;;;;;5.81;77.06;98429.63;5040676;28;20121;-62
2022/12/27 12:06:12;;;;;;;3.92;0.88;;;;;;;5.92;76.34;98430.09;5032810;28;20048;-63
2022/12/27 12:09:14;;;;;;;3.78;1.00;;;;;;;5.93;76.06;98435.28;5044840;28;20045;-62
2022/12/27 12:11:53;;;;;;;2.97;0.85;;;;;;;5.81;76.96;98431.47;5031269;28;20048;-64
2022/12/27 12:14:55;;;;;;;4.10;0.60;;;;;;;5.79;78.22;98428.97;5034514;28;20091;-63
2022/12/27 12:17:44;;;;;;;3.83;0.80;;;;;;;5.91;77.60;98426.59;5024901;28;20125;-63
2022/12/27 12:20:33;;;;;;;2.53;0.88;;;;;;;5.97;76.23;98435.75;5042900;28;20172;-63
2022/12/27 12:23:19;;;;;;;4.32;1.30;;;;;;;5.98;77.66;98434.72;5033299;28;20092;-62
2022/12/27 12:25:55;;;;;;;2.97;0.63;;;;;;;5.93;78.74;98431.78;5051284;28;20045;-64
2022/12/27 12:28:48;;;;;;;4.10;1.38;;;;;;;5.81;78.11;98426.09;5045876;28;20044;-64
2022/12/27 12:31:55;;;;;;;1.45;0.65;;;;;;;5.68;79.02;98416.09;5055128;28;20045;-61
2022/12/27 12:34:46;;;;;;;2.35;0.93;;;;;;;5.65;78.69;98421.84;5038743;28;20055;-59
2022/12/27 12:37:34;;;;;;;3.90;0.80;;;;;;;5.70;79.43;98428.28;5055457;28;20129;-63
2022/12/27 12:40:10;;;;;;;6.22;1.67;;;;;;;5.72;79.77;98425.41;5045226;28;20055;-62
2022/12/27 12:42:59;;;;;;;4.82;1.10;;;;;;;5.71;79.19;98426.41;5045742;28;20127;-63
2022/12/27 12:45:44;;;;;;;2.40;0.95;;;;;;;5.77;79.23;98424.81;5034517;28;20041;-63
2022/12/27 12:48:14;;;;;;;6.22;1.23;;;;;;;5.91;79.01;98425.75;5030563;28;20056;-63
2022/12/27 12:51:02;;;;;;;2.72;0.73;;;;;;;5.90;78.60;98424.91;5038784;28;20106;-63
2022/12/27 12:53:28;;;;;;;5.85;1.10;;;;;;;6.02;79.12;98427.06;5044424;28;20095;-63
2022/12/27 12:56:10;;;;;;;3.20;0.95;;;;;;;5.95;77.72;98424.34;5032237;28;20107;-63
2022/12/27 12:58:55;;;;;;;1.77;0.57;;;;;;;6.13;78.34;98425.72;5029933;28;20048;-63
2022/12/27 13:01:27;;;;;;;6.50;1.02;;;;;;;6.27;77.69;98416.72;5042751;28;20044;-64
2022/12/27 13:04:11;;;;;;;3.83;1.00;;;;;;;6.25;75.98;98416.09;5038962;28;20045;-65
2022/12/27 13:06:59;;;;;;;3.40;0.90;;;;;;;6.22;77.35;98413.78;5039197;28;20048;-66
2022/12/27 13:09:35;;;;;;;4.60;0.80;;;;;;;6.41;75.69;98417.63;5048675;28;20535;-63
2022/12/27 13:12:06;;;;;;;3.65;0.93;;;;;;;6.59;73.37;98408.16;5051675;28;20082;-64
2022/12/27 13:14:39;;;;;;;2.28;0.60;;;;;;;6.54;73.45;98410.63;5046505;28;20559;-62
2022/12/27 13:17:27;;;;;;;4.13;0.98;;;;;;;6.33;73.55;98410.53;5043276;28;20542;-63
2022/12/27 13:19:59;;;;;;;5.05;0.90;;;;;;;6.38;74.01;98413.47;5035391;28;20603;-63
2022/12/27 13:22:42;;;;;;;4.18;0.57;;;;;;;6.19;72.90;98393.50;5038250;28;20581;-63
2022/12/27 13:25:34;;;;;;;3.25;1.15;;;;;;;6.37;73.42;98398.38;5043300;28;20049;-63
2022/12/27 13:28:28;;;;;;;5.05;0.70;;;;;;;6.17;75.06;98402.78;5040643;28;20464;-63
2022/12/27 13:31:01;;;;;;;4.35;0.95;;;;;;;5.95;76.58;98401.00;5045689;28;20095;-62
2022/12/27 13:33:41;;;;;;;3.45;0.85;;;;;;;5.97;76.46;98409.69;5026999;28;20135;-63
2022/12/27 13:36:14;;;;;;;3.67;0.95;;;;;;;6.08;76.32;98404.81;5037851;28;20044;-61
2022/12/27 13:39:11;;;;;;;3.75;0.60;;;;;;;5.98;74.00;98405.13;5041629;28;20152;-64
2022/12/27 13:41:53;;;;;;;6.85;1.00;;;;;;;6.03;73.54;98402.72;5039918;28;20055;-63